Time;durP1;ratioP1;P1;durP2;ratioP2;P2;SDS_P1;SDS_P2;PMS_P1;PMS_P2;Temp;Humidity;BMP_temperature;BMP_pressure;BME280_temperature;BME280_humidity;BME280_pressure;Samples;Min_cycle;Max_cycle;Signal;HPM_P1;HPM_P2
2023/10/16 00:00:43;;;;;;;13.77;4.90;;;6.60;99.90;;;;;;7284397;19;20270;-79
2023/10/16 00:03:12;;;;;;;11.07;4.37;;;6.60;99.90;;;;;;7286250;19;20249;-79
2023/10/16 00:05:49;;;;;;;9.43;4.20;;;6.60;99.90;;;;;;7284027;19;20205;-79
2023/10/16 00:08:16;;;;;;;11.07;4.30;;;6.60;99.90;;;;;;7284350;19;20212;-78
2023/10/16 00:10:55;;;;;;;10.50;4.17;;;6.60;99.90;;;;;;7283796;19;20189;-79
2023/10/16 00:13:26;;;;;;;11.97;4.63;;;6.60;99.90;;;;;;7260532;19;20184;-79
2023/10/16 00:15:58;;;;;;;10.50;4.30;;;6.60;99.90;;;;;;7284285;19;20189;-79
2023/10/16 00:18:25;;;;;;;12.17;4.90;;;6.60;99.90;;;;;;7282839;19;20182;-80
2023/10/16 00:20:52;;;;;;;11.73;4.87;;;6.60;99.90;;;;;;7285111;19;20189;-80
2023/10/16 00:23:20;;;;;;;10.70;4.93;;;6.70;99.90;;;;;;7306780;19;20192;-79
2023/10/16 00:25:46;;;;;;;12.63;5.47;;;6.70;99.90;;;;;;7284806;19;20193;-79
2023/10/16 00:28:15;;;;;;;13.20;5.40;;;6.60;99.90;;;;;;7286176;19;20183;-78
2023/10/16 00:30:41;;;;;;;15.83;6.00;;;6.60;99.90;;;;;;7285213;19;20188;-80
2023/10/16 00:33:13;;;;;;;11.13;5.30;;;6.50;99.90;;;;;;7284094;19;20182;-79
2023/10/16 00:35:45;;;;;;;11.90;5.13;;;6.50;99.90;;;;;;7283318;19;20206;-78
2023/10/16 00:38:13;;;;;;;15.33;5.13;;;6.50;99.90;;;;;;7283292;19;20201;-78
2023/10/16 00:41:05;;;;;;;11.27;4.70;;;6.50;99.90;;;;;;7284905;19;20204;-78
2023/10/16 00:43:34;;;;;;;9.97;4.90;;;6.40;99.90;;;;;;7182488;19;2004572;-79
2023/10/16 00:46:06;;;;;;;9.93;4.50;;;6.30;99.90;;;;;;7281563;19;20214;-79
2023/10/16 00:48:34;;;;;;;10.20;4.80;;;6.30;99.90;;;;;;7283020;19;20268;-79
2023/10/16 00:51:06;;;;;;;9.97;4.47;;;6.30;99.90;;;;;;7283044;19;20192;-79
2023/10/16 00:53:33;;;;;;;11.30;4.50;;;6.30;99.90;;;;;;7283570;19;20189;-79
2023/10/16 00:56:02;;;;;;;10.70;4.10;;;6.30;99.90;;;;;;7281383;19;20319;-79
2023/10/16 00:58:29;;;;;;;11.63;4.73;;;6.30;99.90;;;;;;7283985;19;20208;-79
2023/10/16 01:00:57;;;;;;;12.80;4.93;;;6.30;99.90;;;;;;7284747;19;20193;-80
2023/10/16 01:03:31;;;;;;;13.97;5.10;;;6.40;99.90;;;;;;7282528;19;20245;-79
2023/10/16 01:05:58;;;;;;;13.17;5.50;;;6.40;99.90;;;;;;7281122;19;20567;-79
2023/10/16 01:08:25;;;;;;;13.00;5.03;;;6.50;99.90;;;;;;7282562;19;20188;-79
2023/10/16 01:10:56;;;;;;;12.90;5.73;;;6.30;99.90;;;;;;7284895;19;20189;-79
2023/10/16 01:13:27;;;;;;;12.10;5.70;;;6.20;99.90;;;;;;7282177;19;20194;-78
2023/10/16 01:15:56;;;;;;;12.10;5.70;;;5.90;99.90;;;;;;7282953;19;20188;-79
2023/10/16 01:18:23;;;;;;;15.70;6.03;;;5.70;99.90;;;;;;7282422;19;20232;-80
2023/10/16 01:20:50;;;;;;;13.33;6.90;;;5.60;99.90;;;;;;7303750;19;20183;-80
2023/10/16 01:23:23;;;;;;;14.20;6.43;;;5.50;99.90;;;;;;7281566;19;20194;-80
2023/10/16 01:25:49;;;;;;;15.60;7.00;;;5.40;99.90;;;;;;7282079;19;20185;-79
2023/10/16 01:28:16;;;;;;;13.47;6.43;;;5.40;99.90;;;;;;7281736;19;20179;-79
2023/10/16 01:30:49;;;;;;;14.67;6.03;;;5.40;99.90;;;;;;7281825;19;20203;-79
2023/10/16 01:33:16;;;;;;;12.57;6.30;;;5.30;99.90;;;;;;7282450;19;20190;-79
2023/10/16 01:35:44;;;;;;;14.53;6.40;;;5.30;99.90;;;;;;7282143;19;20196;-79
2023/10/16 01:38:17;;;;;;;14.23;7.07;;;5.40;99.90;;;;;;7280946;19;20178;-79
2023/10/16 01:40:48;;;;;;;18.63;7.37;;;5.30;99.90;;;;;;7280202;19;20193;-79
2023/10/16 01:43:14;;;;;;;14.17;6.57;;;5.30;99.90;;;;;;7282744;19;20200;-79
2023/10/16 01:45:49;;;;;;;14.37;6.43;;;5.40;99.90;;;;;;7281432;19;20699;-80
2023/10/16 01:48:21;;;;;;;14.60;5.80;;;5.40;99.90;;;;;;7281897;19;20659;-79
2023/10/16 01:50:49;;;;;;;12.20;6.00;;;5.30;99.90;;;;;;7283363;19;20184;-79
2023/10/16 01:53:20;;;;;;;11.10;5.03;;;5.40;99.90;;;;;;7282126;19;20531;-80
2023/10/16 01:55:51;;;;;;;15.30;6.07;;;5.40;99.90;;;;;;7282857;19;20652;-79
2023/10/16 01:58:25;;;;;;;13.17;5.73;;;5.40;99.90;;;;;;7283084;19;20189;-79
2023/10/16 02:00:52;;;;;;;14.43;6.00;;;5.40;99.90;;;;;;7266810;19;21022;-79
2023/10/16 02:03:19;;;;;;;14.37;5.53;;;5.30;99.90;;;;;;7300525;19;20184;-79
2023/10/16 02:05:46;;;;;;;14.13;5.50;;;5.30;99.90;;;;;;7281439;19;20260;-79
2023/10/16 02:08:15;;;;;;;13.80;5.10;;;5.30;99.90;;;;;;7284551;19;20183;-79
2023/10/16 02:10:42;;;;;;;11.23;5.33;;;5.50;99.90;;;;;;7284199;19;20218;-78
2023/10/16 02:13:10;;;;;;;12.60;5.60;;;5.50;99.90;;;;;;7288233;19;20195;-79
2023/10/16 02:15:38;;;;;;;11.87;5.27;;;5.50;99.90;;;;;;7288851;19;20530;-78
2023/10/16 02:18:13;;;;;;;12.20;5.20;;;5.60;99.90;;;;;;7286535;19;20200;-79
2023/10/16 02:20:39;;;;;;;11.93;5.50;;;5.60;99.90;;;;;;7289254;19;20220;-79
2023/10/16 02:23:08;;;;;;;9.70;4.77;;;5.50;99.90;;;;;;7287926;19;20241;-78
2023/10/16 02:25:35;;;;;;;12.90;5.77;;;5.50;99.90;;;;;;7287155;19;20182;-78
2023/10/16 02:28:02;;;;;;;11.87;5.70;;;5.50;99.90;;;;;;7288037;19;20194;-79
2023/10/16 02:30:28;;;;;;;12.17;5.30;;;5.50;99.90;;;;;;7288184;19;20196;-79
2023/10/16 02:33:11;;;;;;;12.00;5.73;;;5.50;99.90;;;;;;7288114;19;20178;-79
2023/10/16 02:35:37;;;;;;;14.30;6.10;;;5.60;99.90;;;;;;7286773;19;20201;-79
2023/10/16 02:38:04;;;;;;;14.43;6.67;;;5.50;99.90;;;;;;7288250;19;20574;-80
2023/10/16 02:40:32;;;;;;;16.40;6.37;;;5.50;99.90;;;;;;7288241;19;21165;-79
2023/10/16 02:43:04;;;;;;;13.30;6.73;;;5.50;99.90;;;;;;7286242;19;20192;-79
2023/10/16 02:45:32;;;;;;;13.50;6.67;;;5.60;99.90;;;;;;7285882;19;20196;-80
2023/10/16 02:47:58;;;;;;;11.70;5.73;;;5.60;99.90;;;;;;7286040;19;20193;-80
2023/10/16 02:50:26;;;;;;;11.23;5.87;;;5.70;99.90;;;;;;7287678;19;20276;-79
2023/10/16 02:52:52;;;;;;;13.60;5.97;;;5.70;99.90;;;;;;7291454;19;20224;-80
2023/10/16 02:55:18;;;;;;;10.83;5.83;;;5.70;99.90;;;;;;7307763;19;20655;-80
2023/10/16 02:57:44;;;;;;;12.03;6.00;;;5.70;99.90;;;;;;7287785;19;20190;-79
2023/10/16 03:00:34;;;;;;;13.20;6.23;;;5.70;99.90;;;;;;7286543;19;20730;-78
2023/10/16 03:03:00;;;;;;;12.63;5.90;;;5.70;99.90;;;;;;7185456;19;2004734;-79
2023/10/16 03:05:28;;;;;;;12.37;5.67;;;5.80;99.90;;;;;;7286714;19;20246;-78
2023/10/16 03:07:54;;;;;;;11.50;5.70;;;5.80;99.90;;;;;;7286383;19;20189;-79
2023/10/16 03:10:22;;;;;;;11.97;5.63;;;5.80;99.90;;;;;;7297683;19;20204;-79
2023/10/16 03:12:51;;;;;;;14.47;6.00;;;5.80;99.90;;;;;;7308849;19;20524;-79
2023/10/16 03:15:20;;;;;;;10.37;5.93;;;5.70;99.90;;;;;;7286028;19;20184;-79
2023/10/16 03:17:55;;;;;;;13.77;5.97;;;5.70;99.90;;;;;;7285166;19;20624;-79
2023/10/16 03:20:23;;;;;;;13.60;6.27;;;5.60;99.90;;;;;;7274659;19;20209;-79
2023/10/16 03:22:50;;;;;;;17.27;5.90;;;5.60;99.90;;;;;;7307417;19;20185;-79
2023/10/16 03:28:05;;;;;;;11.63;5.80;;;5.70;99.90;;;;;;7180693;19;2004666;-80
2023/10/16 03:30:31;;;;;;;10.50;5.47;;;5.70;99.90;;;;;;7286586;19;20658;-80
2023/10/16 03:33:00;;;;;;;11.40;5.50;;;5.70;99.90;;;;;;7286351;19;20188;-79
2023/10/16 03:35:29;;;;;;;12.33;5.90;;;5.60;99.90;;;;;;7285309;19;20560;-79
2023/10/16 03:37:56;;;;;;;16.13;5.83;;;5.60;99.90;;;;;;7285412;19;20197;-78
2023/10/16 03:40:24;;;;;;;13.30;6.00;;;5.50;99.90;;;;;;7288850;19;20193;-79
2023/10/16 03:42:54;;;;;;;12.83;5.80;;;5.50;99.90;;;;;;7303575;19;20184;-79
2023/10/16 03:45:21;;;;;;;12.57;6.20;;;5.60;99.90;;;;;;7306201;19;20187;-79
2023/10/16 03:48:03;;;;;;;12.63;5.97;;;5.50;99.90;;;;;;7302111;19;20184;-78
2023/10/16 03:50:34;;;;;;;10.80;6.10;;;5.30;99.90;;;;;;7182420;19;2006029;-79
2023/10/16 03:53:01;;;;;;;11.83;5.63;;;5.30;99.90;;;;;;7284833;19;20524;-79
2023/10/16 03:55:27;;;;;;;13.60;6.07;;;5.30;99.90;;;;;;7283093;19;20848;-78
2023/10/16 03:57:55;;;;;;;13.37;6.10;;;5.30;99.90;;;;;;7283265;19;20197;-82
2023/10/16 04:00:33;;;;;;;14.27;6.17;;;5.20;99.90;;;;;;7298908;19;20189;-78
2023/10/16 04:02:59;;;;;;;11.60;5.63;;;5.20;99.90;;;;;;7284155;19;20238;-78
2023/10/16 04:08:14;;;;;;;14.27;6.03;;;5.30;99.90;;;;;;7284758;19;20205;-79
2023/10/16 04:10:46;;;;;;;11.83;5.70;;;5.40;99.90;;;;;;7283842;19;20522;-79
2023/10/16 04:13:14;;;;;;;12.97;5.87;;;5.50;99.90;;;;;;7282021;19;20207;-79
2023/10/16 04:18:27;;;;;;;12.83;5.70;;;5.50;99.90;;;;;;7284829;19;20197;-79
2023/10/16 04:23:52;;;;;;;12.77;5.77;;;5.60;99.90;;;;;;7283243;19;20279;-78
2023/10/16 04:31:56;;;;;;;9.83;5.33;;;5.40;99.90;;;;;;7281449;19;20192;-80
2023/10/16 05:03:23;;;;;;;13.13;5.97;;;5.20;99.90;;;;;;7282785;19;20188;-79
2023/10/16 05:06:05;;;;;;;13.33;6.17;;;5.30;99.90;;;;;;7304714;19;20185;-80
2023/10/16 05:11:57;;;;;;;11.07;5.40;;;5.30;99.90;;;;;;7176790;19;2004452;-77
2023/10/16 05:14:50;;;;;;;13.30;6.03;;;5.30;99.90;;;;;;7269889;19;20239;-78
2023/10/16 05:17:21;;;;;;;15.63;5.47;;;5.40;99.90;;;;;;7282719;19;20190;-78
2023/10/16 05:19:54;;;;;;;13.00;5.70;;;5.40;99.90;;;;;;7278840;19;20196;-78
2023/10/16 06:14:45;;;;;;;16.90;6.47;;;5.50;99.90;;;;;;7287307;19;20191;-77
2023/10/16 06:17:15;;;;;;;14.47;6.17;;;5.40;99.90;;;;;;7289429;19;20235;-77
2023/10/16 06:19:42;;;;;;;12.83;6.00;;;5.40;99.90;;;;;;7286507;19;20202;-77
2023/10/16 06:22:09;;;;;;;12.87;5.90;;;5.40;99.90;;;;;;7288231;19;20541;-77
2023/10/16 06:24:47;;;;;;;15.57;5.53;;;5.40;99.90;;;;;;7287293;19;20188;-77
2023/10/16 06:27:20;;;;;;;17.27;6.90;;;5.40;99.90;;;;;;7286932;19;20189;-77
2023/10/16 06:29:50;;;;;;;13.37;6.70;;;5.50;99.90;;;;;;7288119;19;21018;-77
2023/10/16 06:32:20;;;;;;;13.17;5.93;;;5.50;99.90;;;;;;7289315;19;20191;-77
2023/10/16 06:34:52;;;;;;;19.27;6.70;;;5.50;99.90;;;;;;7287588;19;20201;-78
2023/10/16 06:37:18;;;;;;;14.30;6.80;;;5.50;99.90;;;;;;7289755;19;20186;-78
2023/10/16 06:39:48;;;;;;;14.60;6.70;;;5.50;99.90;;;;;;7289049;19;20298;-78
2023/10/16 06:42:20;;;;;;;14.20;6.10;;;5.60;99.90;;;;;;7286697;19;20205;-79
2023/10/16 06:44:53;;;;;;;17.67;7.50;;;5.70;99.90;;;;;;7287832;19;20303;-78
2023/10/16 06:47:35;;;;;;;13.70;6.97;;;5.70;99.90;;;;;;7289209;19;20192;-78
2023/10/16 06:52:59;;;;;;;13.83;6.40;;;6.00;99.90;;;;;;7285888;19;20184;-78
2023/10/16 06:55:24;;;;;;;16.00;6.03;;;6.20;99.90;;;;;;7267180;19;20263;-77
2023/10/16 06:57:50;;;;;;;13.73;5.77;;;6.40;99.90;;;;;;7309604;19;20212;-77
2023/10/16 07:00:27;;;;;;;13.80;5.77;;;6.60;99.90;;;;;;7287321;19;20764;-77
2023/10/16 07:02:55;;;;;;;13.50;5.43;;;6.90;99.90;;;;;;7266831;19;20202;-79
2023/10/16 07:05:25;;;;;;;13.23;5.77;;;7.30;99.90;;;;;;7301369;19;20515;-77
2023/10/16 07:07:56;;;;;;;10.83;5.37;;;7.30;99.90;;;;;;7302347;19;20660;-78
2023/10/16 07:10:22;;;;;;;15.57;5.30;;;7.20;99.90;;;;;;7290180;19;20645;-78
2023/10/16 07:13:02;;;;;;;11.83;6.03;;;7.20;99.90;;;;;;7309046;19;20322;-78
2023/10/16 07:15:29;;;;;;;11.93;5.00;;;7.30;99.90;;;;;;7184594;19;2004384;-78
2023/10/16 07:18:04;;;;;;;10.80;5.17;;;7.50;99.90;;;;;;7286418;19;20178;-78
2023/10/16 07:20:53;;;;;;;15.83;5.07;;;7.60;99.90;;;;;;7288404;19;20201;-78
2023/10/16 07:23:20;;;;;;;10.50;5.10;;;7.60;99.90;;;;;;7287031;19;20561;-78
2023/10/16 07:25:50;;;;;;;13.13;5.20;;;7.70;99.90;;;;;;7287271;19;20186;-78
2023/10/16 07:28:18;;;;;;;11.33;5.57;;;7.70;99.90;;;;;;7284881;19;20182;-78
2023/10/16 07:30:44;;;;;;;11.30;5.37;;;7.70;99.90;;;;;;7287577;19;20185;-78
2023/10/16 07:33:14;;;;;;;14.33;5.70;;;7.80;99.90;;;;;;7284610;19;20207;-77
2023/10/16 07:35:44;;;;;;;12.47;5.30;;;7.80;99.90;;;;;;7285536;19;20211;-78
2023/10/16 07:38:21;;;;;;;13.70;5.73;;;8.00;99.90;;;;;;7284072;19;20675;-78
2023/10/16 07:40:58;;;;;;;13.80;5.80;;;8.20;99.90;;;;;;7287587;19;20177;-78
2023/10/16 07:43:29;;;;;;;13.93;5.90;;;8.30;99.90;;;;;;7264405;19;20206;-78
2023/10/16 07:48:57;;;;;;;12.73;6.07;;;8.70;99.90;;;;;;7286367;19;20190;-78
2023/10/16 07:51:27;;;;;;;15.40;6.10;;;8.90;99.90;;;;;;7264022;19;20187;-78
2023/10/16 07:53:54;;;;;;;12.93;6.30;;;9.10;99.90;;;;;;7284930;19;20193;-78
2023/10/16 07:59:06;;;;;;;16.43;6.73;;;9.50;99.90;;;;;;7285228;19;20189;-78
2023/10/16 08:01:41;;;;;;;16.87;7.40;;;9.60;99.90;;;;;;7183963;19;2004530;-79
2023/10/16 08:04:27;;;;;;;15.47;7.10;;;9.80;99.90;;;;;;7283619;19;20192;-78
2023/10/16 08:07:04;;;;;;;22.23;12.47;;;10.00;99.90;;;;;;7263365;19;20189;-78
2023/10/16 08:12:12;;;;;;;11.87;7.00;;;10.40;99.90;;;;;;7285334;19;20538;-78
2023/10/16 08:14:41;;;;;;;12.47;7.07;;;10.50;99.90;;;;;;7284667;19;20538;-78
2023/10/16 08:17:40;;;;;;;12.07;6.60;;;10.50;99.90;;;;;;7283626;19;20267;-78
2023/10/16 08:19:59;;;;;;;13.63;6.10;;;10.60;99.90;;;;;;7182394;19;2004776;-78
2023/10/16 08:22:26;;;;;;;13.83;6.10;;;10.70;99.90;;;;;;7287949;19;20193;-78
2023/10/16 08:24:58;;;;;;;13.60;6.27;;;10.70;99.90;;;;;;7293791;19;20190;-79
2023/10/16 08:30:18;;;;;;;17.33;7.47;;;10.90;99.90;;;;;;7285176;19;20194;-78
2023/10/16 08:35:20;;;;;;;15.97;6.80;;;11.10;99.90;;;;;;7284843;19;20188;-78
2023/10/16 08:37:56;;;;;;;16.67;6.20;;;11.40;99.90;;;;;;7285301;19;20683;-78
2023/10/16 08:40:35;;;;;;;18.70;7.27;;;11.60;99.90;;;;;;7254102;19;20674;-78
2023/10/16 08:43:03;;;;;;;17.37;6.50;;;11.70;99.90;;;;;;7283350;19;20189;-78
2023/10/16 08:45:32;;;;;;;16.63;7.10;;;11.90;99.90;;;;;;7282185;19;20208;-78
2023/10/16 08:47:58;;;;;;;15.60;6.80;;;12.10;99.90;;;;;;7282627;19;20194;-78
2023/10/16 08:50:40;;;;;;;16.63;8.27;;;12.30;99.90;;;;;;7280921;19;20218;-78
2023/10/16 08:55:57;;;;;;;17.00;7.07;;;12.30;99.90;;;;;;7283977;19;20695;-77
2023/10/16 08:58:23;;;;;;;16.80;6.47;;;12.40;99.90;;;;;;7282946;19;20250;-78
2023/10/16 09:00:51;;;;;;;17.50;6.37;;;12.60;99.90;;;;;;7305835;19;20187;-77
2023/10/16 09:03:19;;;;;;;15.60;6.07;;;12.80;99.90;;;;;;7285051;19;20205;-79
2023/10/16 09:05:45;;;;;;;13.80;6.10;;;13.00;99.90;;;;;;7283661;19;20205;-77
2023/10/16 09:08:15;;;;;;;13.93;5.97;;;13.20;99.90;;;;;;7283300;19;20619;-78
2023/10/16 09:10:44;;;;;;;12.20;4.43;;;13.30;99.90;;;;;;7282894;19;20941;-78
2023/10/16 09:13:13;;;;;;;12.60;4.23;;;13.50;99.90;;;;;;7283338;19;21572;-78
2023/10/16 09:15:45;;;;;;;9.97;4.23;;;13.60;99.90;;;;;;7281707;19;20188;-78
2023/10/16 09:18:14;;;;;;;10.77;4.23;;;13.70;99.90;;;;;;7283527;19;20232;-78
2023/10/16 09:20:42;;;;;;;12.07;4.30;;;13.80;99.90;;;;;;7282822;19;21680;-78
2023/10/16 09:23:22;;;;;;;11.27;3.90;;;13.90;99.90;;;;;;7281869;19;20816;-78
2023/10/16 09:25:48;;;;;;;7.77;3.80;;;14.10;99.90;;;;;;7282882;19;20192;-78
2023/10/16 09:28:18;;;;;;;11.17;4.10;;;14.20;99.90;;;;;;7282985;19;21120;-77
2023/10/16 09:30:48;;;;;;;11.77;3.60;;;14.30;99.90;;;;;;7282470;19;20793;-78
2023/10/16 09:33:15;;;;;;;11.00;2.77;;;14.30;99.90;;;;;;7278464;19;20185;-78
2023/10/16 09:35:45;;;;;;;8.77;2.83;;;14.30;99.90;;;;;;7284497;19;20271;-78
2023/10/16 09:38:19;;;;;;;13.43;2.77;;;14.30;99.90;;;;;;7284841;19;20192;-78
2023/10/16 09:41:21;;;;;;;10.30;2.53;;;14.40;99.90;;;;;;7282189;19;20181;-78
2023/10/16 09:43:56;;;;;;;9.57;2.40;;;14.60;99.90;;;;;;7180716;19;2004392;-78
2023/10/16 09:49:10;;;;;;;10.70;2.00;;;15.00;99.90;;;;;;7280595;19;20200;-78
2023/10/16 09:51:36;;;;;;;9.33;1.83;;;15.50;99.90;;;;;;7282874;19;20598;-78
2023/10/16 09:54:02;;;;;;;7.57;1.70;;;15.90;99.90;;;;;;7282303;19;20200;-79
2023/10/16 09:56:41;;;;;;;7.10;1.73;;;16.70;99.90;;;;;;7282593;19;20190;-78
2023/10/16 09:59:12;;;;;;;7.30;2.10;;;17.20;99.90;;;;;;7281550;19;20182;-78
2023/10/16 10:01:44;;;;;;;9.93;1.70;;;17.50;99.90;;;;;;7281524;19;20874;-77
2023/10/16 10:04:19;;;;;;;7.30;1.57;;;17.60;99.90;;;;;;7282430;19;20223;-78
2023/10/16 10:06:50;;;;;;;9.53;1.50;;;17.60;99.90;;;;;;7280704;19;20198;-78
2023/10/16 10:12:16;;;;;;;7.53;1.30;;;17.50;99.90;;;;;;7280256;19;20654;-78
2023/10/16 10:14:49;;;;;;;8.23;1.37;;;17.60;99.90;;;;;;7177613;19;2006235;-78
2023/10/16 10:17:20;;;;;;;6.47;1.33;;;17.80;99.90;;;;;;7280861;19;20194;-78
2023/10/16 10:19:55;;;;;;;8.67;1.50;;;17.80;99.90;;;;;;7280437;19;20203;-78
2023/10/16 10:22:27;;;;;;;7.13;1.53;;;17.70;99.90;;;;;;7277775;19;20220;-77
2023/10/16 10:25:16;;;;;;;8.63;1.70;;;17.50;99.90;;;;;;7280021;19;20217;-79
2023/10/16 10:27:44;;;;;;;6.57;1.30;;;17.30;99.90;;;;;;7279882;19;20217;-78
2023/10/16 10:30:40;;;;;;;8.67;1.53;;;17.50;99.90;;;;;;7289845;19;20222;-77
2023/10/16 10:33:06;;;;;;;7.27;1.40;;;17.30;99.90;;;;;;7184376;19;2005009;-78
2023/10/16 10:35:43;;;;;;;7.80;1.70;;;17.30;99.90;;;;;;7288156;19;20204;-79
2023/10/16 10:38:21;;;;;;;7.17;1.43;;;17.50;99.90;;;;;;7289214;19;20189;-78
2023/10/16 10:41:06;;;;;;;6.80;1.03;;;17.60;99.90;;;;;;7290333;19;20667;-78
2023/10/16 10:43:49;;;;;;;6.20;1.03;;;17.70;99.90;;;;;;7186108;19;2004614;-78
2023/10/16 10:46:25;;;;;;;8.80;0.90;;;17.80;99.90;;;;;;7286202;19;20188;-76
2023/10/16 10:48:54;;;;;;;7.87;1.10;;;17.50;99.90;;;;;;7281181;19;20187;-78
2023/10/16 10:51:21;;;;;;;6.03;1.10;;;17.50;99.90;;;;;;7307498;19;20645;-78
2023/10/16 10:53:59;;;;;;;6.37;1.20;;;17.30;99.90;;;;;;7287242;19;20181;-78
2023/10/16 10:56:48;;;;;;;4.67;0.90;;;17.20;99.90;;;;;;7186385;19;2004638;-78
2023/10/16 10:59:39;;;;;;;7.77;1.07;;;17.30;99.90;;;;;;7285211;19;20189;-78
2023/10/16 11:04:54;;;;;;;6.43;1.23;;;17.30;99.90;;;;;;7285904;19;20606;-78
2023/10/16 11:07:45;;;;;;;6.23;1.10;;;16.90;99.90;;;;;;7287335;19;20273;-77
2023/10/16 11:10:13;;;;;;;6.33;1.10;;;16.80;99.90;;;;;;7182947;19;2004974;-78
2023/10/16 11:12:39;;;;;;;7.00;1.10;;;16.30;99.90;;;;;;7285677;19;20259;-78
2023/10/16 11:15:15;;;;;;;4.77;1.03;;;16.00;99.90;;;;;;7287033;19;20204;-79
2023/10/16 11:17:44;;;;;;;6.60;1.00;;;15.90;99.90;;;;;;7285206;19;20240;-79
2023/10/16 11:22:45;;;;;;;6.83;1.43;;;16.00;99.90;;;;;;7286206;19;20227;-79
2023/10/16 11:25:14;;;;;;;3.90;1.10;;;16.10;99.90;;;;;;7286311;19;20686;-78
2023/10/16 11:27:42;;;;;;;5.37;1.13;;;15.90;99.90;;;;;;7284682;19;20208;-78
2023/10/16 11:30:18;;;;;;;3.53;0.80;;;15.90;99.90;;;;;;7285668;19;20290;-78
2023/10/16 11:32:46;;;;;;;8.03;1.10;;;15.80;99.90;;;;;;7284738;19;20291;-78
2023/10/16 11:35:19;;;;;;;8.13;1.90;;;15.80;99.90;;;;;;7284866;19;20198;-78
2023/10/16 11:37:50;;;;;;;7.60;1.30;;;15.80;99.90;;;;;;7283195;19;20213;-78
2023/10/16 11:40:31;;;;;;;4.33;0.90;;;15.60;99.90;;;;;;7283523;19;20185;-77
2023/10/16 11:42:59;;;;;;;6.40;1.40;;;15.60;99.90;;;;;;7180584;19;2004850;-77
2023/10/16 11:45:24;;;;;;;4.57;1.00;;;15.80;99.90;;;;;;7282461;19;20194;-78
2023/10/16 11:50:38;;;;;;;4.30;0.63;;;15.70;99.90;;;;;;7282514;19;20217;-77
2023/10/16 11:53:08;;;;;;;5.67;0.90;;;15.80;99.90;;;;;;7281208;19;20298;-79
2023/10/16 11:55:37;;;;;;;5.57;0.90;;;15.90;99.90;;;;;;7283244;19;20195;-79
2023/10/16 11:58:06;;;;;;;4.53;0.80;;;15.90;99.90;;;;;;7285531;19;20191;-78
2023/10/16 12:00:35;;;;;;;7.43;0.93;;;16.20;99.90;;;;;;7283960;19;20662;-78
2023/10/16 12:03:07;;;;;;;4.90;0.90;;;16.10;99.90;;;;;;7284745;19;20191;-77
2023/10/16 12:05:37;;;;;;;6.47;1.13;;;16.30;99.90;;;;;;7284001;19;20209;-78
2023/10/16 12:08:07;;;;;;;2.93;0.80;;;16.40;99.90;;;;;;7281738;19;20265;-78
2023/10/16 12:10:35;;;;;;;3.70;1.00;;;16.30;99.90;;;;;;7282524;19;20202;-77
2023/10/16 12:13:02;;;;;;;3.83;0.70;;;16.40;99.90;;;;;;7284438;19;20215;-79
2023/10/16 12:15:31;;;;;;;5.37;0.83;;;16.50;99.90;;;;;;7283087;19;20183;-78
2023/10/16 12:18:00;;;;;;;5.03;0.70;;;16.60;99.90;;;;;;7285451;19;20203;-78
2023/10/16 12:20:27;;;;;;;4.20;0.77;;;16.80;99.90;;;;;;7283782;19;20196;-78
2023/10/16 12:22:58;;;;;;;4.97;1.00;;;16.80;99.90;;;;;;7284843;19;20223;-78
2023/10/16 12:25:24;;;;;;;6.37;1.10;;;16.70;99.90;;;;;;7283461;19;20284;-78
2023/10/16 12:27:53;;;;;;;6.03;1.10;;;16.90;99.90;;;;;;7305793;19;20206;-78
2023/10/16 12:30:19;;;;;;;4.17;0.67;;;16.90;99.90;;;;;;7285651;19;20663;-78
2023/10/16 12:32:45;;;;;;;4.33;1.10;;;17.10;99.90;;;;;;7284547;19;20248;-78
2023/10/16 12:35:18;;;;;;;5.60;1.20;;;17.20;99.90;;;;;;7284174;19;20575;-78
2023/10/16 12:37:44;;;;;;;5.63;1.03;;;17.00;99.90;;;;;;7283249;19;20193;-78
2023/10/16 12:42:58;;;;;;;4.77;1.23;;;16.40;99.90;;;;;;7181597;19;2004992;-78
2023/10/16 12:45:26;;;;;;;8.23;1.07;;;16.10;99.90;;;;;;7279179;19;20188;-78
2023/10/16 12:47:53;;;;;;;7.73;1.30;;;16.00;99.90;;;;;;7284938;19;20213;-77
2023/10/16 12:50:27;;;;;;;3.63;0.80;;;15.80;99.90;;;;;;7306402;19;20184;-77
2023/10/16 12:52:55;;;;;;;4.53;0.73;;;15.60;99.90;;;;;;7261641;19;20679;-78
2023/10/16 12:55:22;;;;;;;2.87;0.80;;;15.50;99.90;;;;;;7295225;19;20298;-78
2023/10/16 12:57:49;;;;;;;6.27;0.80;;;15.60;99.90;;;;;;7305845;19;20585;-78
2023/10/16 13:00:18;;;;;;;3.77;0.63;;;15.60;99.90;;;;;;7283358;19;20272;-78
2023/10/16 13:02:48;;;;;;;4.73;0.70;;;15.50;99.90;;;;;;7282133;19;20217;-78
2023/10/16 13:05:18;;;;;;;5.07;0.77;;;15.30;99.90;;;;;;7282586;19;20535;-77
2023/10/16 13:07:47;;;;;;;2.57;0.70;;;15.10;99.90;;;;;;7283785;19;20197;-78
2023/10/16 13:10:20;;;;;;;4.60;0.90;;;15.10;99.90;;;;;;7283062;19;20209;-77
2023/10/16 13:12:46;;;;;;;5.20;0.80;;;14.90;99.90;;;;;;7283293;19;20667;-78
2023/10/16 13:15:24;;;;;;;4.80;1.20;;;14.80;99.90;;;;;;7282922;19;20433;-77
2023/10/16 13:17:52;;;;;;;6.87;1.40;;;14.80;99.90;;;;;;7284290;19;20570;-77
2023/10/16 13:20:18;;;;;;;5.03;0.90;;;14.60;99.90;;;;;;7281783;19;20197;-77
2023/10/16 13:22:52;;;;;;;6.67;1.10;;;14.50;99.90;;;;;;7282581;19;20195;-77
2023/10/16 13:25:25;;;;;;;4.73;0.90;;;14.50;99.90;;;;;;7281352;19;20193;-76
2023/10/16 13:27:52;;;;;;;4.43;1.10;;;14.40;99.90;;;;;;7279212;19;20191;-77
2023/10/16 13:30:18;;;;;;;7.13;1.17;;;14.40;99.90;;;;;;7306658;19;20191;-77
2023/10/16 13:32:47;;;;;;;5.00;1.00;;;14.20;99.90;;;;;;7282107;19;20198;-78
2023/10/16 13:35:15;;;;;;;5.70;0.80;;;14.10;99.90;;;;;;7282657;19;20291;-78
2023/10/16 13:37:43;;;;;;;4.20;1.00;;;14.00;99.90;;;;;;7282646;19;20681;-77
2023/10/16 13:40:32;;;;;;;4.70;1.10;;;14.10;99.90;;;;;;7283145;19;20746;-78
2023/10/16 13:43:00;;;;;;;5.67;1.00;;;14.10;99.90;;;;;;7179707;19;2004722;-77
2023/10/16 13:45:27;;;;;;;6.63;1.30;;;14.30;99.90;;;;;;7280647;19;20189;-77
2023/10/16 13:47:54;;;;;;;5.57;1.27;;;14.30;99.90;;;;;;7280234;19;20203;-77
2023/10/16 13:50:25;;;;;;;6.90;1.10;;;14.40;99.90;;;;;;7301166;19;20214;-78
2023/10/16 13:52:54;;;;;;;3.87;0.80;;;14.50;99.90;;;;;;7295105;19;20219;-76
2023/10/16 13:55:22;;;;;;;3.77;0.83;;;14.50;99.90;;;;;;7302177;19;20190;-78
2023/10/16 13:57:49;;;;;;;3.67;1.00;;;14.30;99.90;;;;;;7304471;19;20592;-78
2023/10/16 14:00:28;;;;;;;3.77;0.93;;;14.20;99.90;;;;;;7281777;19;20542;-78
2023/10/16 14:03:04;;;;;;;4.13;0.87;;;14.10;99.90;;;;;;7264468;19;20206;-78
2023/10/16 14:05:35;;;;;;;7.30;1.00;;;14.00;99.90;;;;;;7288480;19;20191;-78
2023/10/16 14:08:03;;;;;;;6.57;1.10;;;14.00;99.90;;;;;;7286000;19;20207;-78
2023/10/16 14:10:29;;;;;;;4.43;1.03;;;13.90;99.90;;;;;;7288909;19;20197;-78
2023/10/16 14:13:10;;;;;;;5.63;0.83;;;13.70;99.90;;;;;;7287981;19;20226;-78
2023/10/16 14:15:41;;;;;;;4.97;1.10;;;13.80;99.90;;;;;;7288409;19;20208;-78
2023/10/16 14:18:14;;;;;;;5.10;1.30;;;13.90;99.90;;;;;;7287773;19;20195;-79
2023/10/16 14:20:48;;;;;;;5.77;1.10;;;14.00;99.90;;;;;;7289372;19;20195;-78
2023/10/16 14:23:19;;;;;;;5.20;1.00;;;14.10;99.90;;;;;;7287982;19;20714;-78
2023/10/16 14:25:48;;;;;;;6.80;1.20;;;14.10;99.90;;;;;;7286987;19;20567;-78
2023/10/16 14:28:25;;;;;;;5.23;1.03;;;14.20;99.90;;;;;;7287461;19;20231;-77
2023/10/16 14:31:09;;;;;;;5.60;1.00;;;14.00;99.90;;;;;;7280762;19;20186;-77
2023/10/16 14:33:39;;;;;;;5.20;1.10;;;14.00;99.90;;;;;;7284851;19;21549;-77
2023/10/16 14:36:10;;;;;;;5.13;0.90;;;14.00;99.90;;;;;;7286758;19;20188;-77
2023/10/16 14:38:37;;;;;;;6.07;1.20;;;13.80;99.90;;;;;;7284415;19;20200;-77
2023/10/16 14:41:06;;;;;;;7.67;1.17;;;13.80;99.90;;;;;;7285713;19;20248;-76
2023/10/16 14:43:34;;;;;;;5.63;1.40;;;13.70;99.90;;;;;;7286540;19;20226;-77
2023/10/16 14:46:02;;;;;;;6.00;1.00;;;13.70;99.90;;;;;;7284997;19;20195;-76
2023/10/16 14:48:28;;;;;;;3.60;1.20;;;13.80;99.90;;;;;;7282742;19;20198;-76
2023/10/16 14:50:54;;;;;;;4.97;1.43;;;13.80;99.90;;;;;;7284080;19;20194;-76
2023/10/16 14:53:20;;;;;;;5.90;1.07;;;13.70;99.90;;;;;;7305629;19;20620;-76
2023/10/16 14:55:49;;;;;;;5.03;1.20;;;13.70;99.90;;;;;;7284367;19;20303;-76
2023/10/16 14:58:16;;;;;;;6.30;1.33;;;13.70;99.90;;;;;;7283530;19;20224;-77
2023/10/16 15:00:44;;;;;;;3.83;1.10;;;13.70;99.90;;;;;;7284344;19;20212;-76
2023/10/16 15:03:11;;;;;;;7.37;1.67;;;13.70;99.90;;;;;;7284363;19;25250;-76
2023/10/16 15:05:41;;;;;;;6.70;1.23;;;13.60;99.90;;;;;;7285081;19;20658;-76
2023/10/16 15:08:11;;;;;;;8.70;1.73;;;13.60;99.90;;;;;;7284352;19;20195;-76
2023/10/16 15:10:42;;;;;;;5.70;1.20;;;13.60;99.90;;;;;;7284383;19;20219;-76
2023/10/16 15:13:14;;;;;;;6.17;1.30;;;13.60;99.90;;;;;;7284883;19;20257;-76
2023/10/16 15:15:42;;;;;;;8.23;1.50;;;13.70;99.90;;;;;;7281791;19;20189;-76
2023/10/16 15:18:09;;;;;;;7.53;1.40;;;13.70;99.90;;;;;;7284032;19;20219;-76
2023/10/16 15:20:36;;;;;;;8.13;1.60;;;13.70;99.90;;;;;;7283653;19;20192;-76